Aeroporto :
LOGIN :

Iscrizione | Disclaimer

   EN    FR    IT 

 










Sommario :    VFR   VFR Marginale   IFR   IFR Intensivo   IFR Molto Intensivo
Visibilità : 
Base nubi : 
>= 8 km
>= 3000ft
5 / 8 km
1000 / 3000 ft
1500m / 5 km
500 / 1000 ft
800 / 1500m
200 / 500 ft
< 800m
< 200 ft
Simboli :   Temporali  Nebbia  Neve Forte  Precipitazioni Forti  Vento > 20 kt
SIGMETs :   Varie  Temporali  Ghiacco  Turbolenza  Onda orograficha  Ceneri Vulcaniche






- Altitudine del aeroporto : 70 ft
- Codice IATA : WBG


ETNS - Schleswig

ULTIMO METAR :
  • 201620Z AUTO 24003KT 1200 // ////// 04/04 Q1017 ///

METARs OBSOLETI :
  • 201600Z 26003KT 0900 R23////// -RADZ FG OVC000 04/04 Q1017 RED FCST CANCEL
  • 201520Z 29002KT 0900 R23////// -RADZ FG OVC000 04/04 Q1017 RED AMB TEMPO RED
  • 201429Z 29003KT 1500 R23////// -RADZ BR OVC001 04/04 Q1018 RED AMB TEMPO RED
  • 201420Z 30002KT 2800 BR OVC002 04/04 Q1018 AMB AMB

TAF TAF ETNS
Valido dal 20 a 15 ore il 21 a 00 ore UTC


201420Z 2015/2024 VRB03KT 3000 BR OVC002
TEMPO 2017/2024 VRB03KT 0500 -DZ VV001 BY ETGL



MetMap, La meteo Aeronautica in un colpo d'occhio ! - Copyright ORBIFLY Dicembre 2007 - Disclaimer

ORBIFLY MET'MAP TEAM :

Programmazione e sviluppo : Alexandra Zaïnal
Concezione e sviluppo : Baudouin d'Aumeries
Co-Programmazione e sviluppo : Marc-Olivier Méhu
Supporto tecnico e logistico : Manuel Goepfert
Aiuto per la traduzione : Arnaldo La Scala

Contatto : metmap@orbifly.com




FONTI E CREDITI :

   NOAA